createdAt,value
2024-01-27T00:00:36.389Z,9.40
2024-01-27T00:03:04.058Z,9.40
2024-01-27T00:05:31.998Z,9.40
2024-01-27T00:07:59.511Z,9.40
2024-01-27T00:10:26.719Z,9.50
2024-01-27T00:12:53.906Z,9.50
2024-01-27T00:15:21.174Z,9.50
2024-01-27T00:17:48.483Z,9.50
2024-01-27T00:20:15.766Z,9.50
2024-01-27T00:22:42.801Z,9.50
2024-01-27T00:25:09.951Z,9.50
2024-01-27T00:27:37.735Z,9.50
2024-01-27T00:30:05.747Z,9.50
2024-01-27T00:32:35.308Z,9.50
2024-01-27T00:35:02.641Z,9.40
2024-01-27T00:37:30.091Z,9.40
2024-01-27T00:39:57.153Z,9.40
2024-01-27T00:42:25.959Z,9.30
2024-01-27T00:44:53.526Z,9.30
2024-01-27T00:47:20.766Z,9.20
2024-01-27T00:49:47.951Z,9.20
2024-01-27T00:52:15.209Z,9.10
2024-01-27T00:54:42.340Z,9.10
2024-01-27T00:57:09.521Z,9.10
2024-01-27T00:59:36.582Z,9.10
2024-01-27T01:02:03.855Z,9.10
2024-01-27T01:04:31.508Z,9.10
2024-01-27T01:06:59.034Z,9.10
2024-01-27T01:09:26.373Z,9.10
2024-01-27T01:11:53.719Z,9.10
2024-01-27T01:14:20.913Z,9.10
2024-01-27T01:16:48.033Z,9.10
2024-01-27T01:19:15.220Z,9.10
2024-01-27T01:21:42.187Z,9.10
2024-01-27T01:24:09.347Z,9.20
2024-01-27T01:26:36.361Z,9.20
2024-01-27T01:29:03.563Z,9.20
2024-01-27T01:31:30.592Z,9.20
2024-01-27T01:33:57.833Z,9.20
2024-01-27T01:36:25.225Z,9.30
2024-01-27T01:38:52.337Z,9.20
2024-01-27T01:41:19.359Z,9.30
2024-01-27T01:43:46.548Z,9.20
2024-01-27T01:46:13.626Z,9.20
2024-01-27T01:48:41.050Z,9.20
2024-01-27T01:51:09.874Z,9.20
2024-01-27T01:53:37.199Z,9.20
2024-01-27T01:56:05.770Z,9.20
2024-01-27T01:58:35.584Z,9.20
2024-01-27T02:01:03.089Z,9.20
2024-01-27T02:03:30.381Z,9.20
2024-01-27T02:05:57.773Z,9.20
2024-01-27T02:08:25.186Z,9.20
2024-01-27T02:10:52.341Z,9.20
2024-01-27T02:13:20.296Z,9.10
2024-01-27T02:15:50.159Z,9.10
2024-01-27T02:18:18.359Z,9.10
2024-01-27T02:20:45.896Z,9.10
2024-01-27T02:23:13.459Z,9.10
2024-01-27T02:25:40.581Z,9.10
2024-01-27T02:28:07.768Z,9.20
2024-01-27T02:30:34.930Z,9.20
2024-01-27T02:33:03.627Z,9.20
2024-01-27T02:35:30.966Z,9.30
2024-01-27T02:37:58.260Z,9.30
2024-01-27T02:40:25.340Z,9.30
2024-01-27T02:42:52.343Z,9.30
2024-01-27T02:45:19.404Z,9.50
2024-01-27T02:47:46.863Z,9.40
2024-01-27T02:50:14.306Z,9.40
2024-01-27T02:52:41.444Z,9.50
2024-01-27T02:55:08.869Z,9.50
2024-01-27T02:57:36.105Z,9.50
2024-01-27T03:00:03.770Z,9.50
2024-01-27T03:02:30.848Z,9.50
2024-01-27T03:04:58.155Z,9.50
2024-01-27T03:07:25.375Z,9.50
2024-01-27T03:09:52.356Z,9.40
2024-01-27T03:12:19.594Z,9.50
2024-01-27T03:14:47.692Z,9.60
2024-01-27T03:17:14.751Z,9.50
2024-01-27T03:19:41.887Z,9.60
2024-01-27T03:22:09.019Z,9.60
2024-01-27T03:24:36.168Z,9.60
2024-01-27T03:27:03.565Z,9.60
2024-01-27T03:29:30.592Z,9.60
2024-01-27T03:31:57.623Z,9.50
2024-01-27T03:34:26.185Z,9.50
2024-01-27T03:36:53.703Z,9.50
2024-01-27T03:39:20.945Z,9.50
2024-01-27T03:41:48.142Z,9.40
2024-01-27T03:44:15.571Z,9.40
2024-01-27T03:46:42.631Z,9.30
2024-01-27T03:49:10.141Z,9.30
2024-01-27T03:51:38.150Z,9.20
2024-01-27T03:54:05.712Z,9.20
2024-01-27T03:56:32.818Z,9.10
2024-01-27T03:58:59.874Z,9.00
2024-01-27T04:01:26.957Z,8.90
2024-01-27T04:03:54.204Z,8.90
2024-01-27T04:06:21.534Z,8.80
2024-01-27T04:08:48.678Z,8.80
2024-01-27T04:11:23.195Z,8.70
2024-01-27T04:13:52.231Z,8.80
2024-01-27T04:16:19.614Z,8.60
2024-01-27T04:18:47.569Z,8.60
2024-01-27T04:21:14.825Z,8.50
2024-01-27T04:23:42.117Z,8.50
2024-01-27T04:26:10.790Z,8.50
2024-01-27T04:28:38.763Z,8.40
2024-01-27T04:31:06.463Z,8.30
2024-01-27T04:33:34.193Z,8.30
2024-01-27T04:36:01.563Z,8.30
2024-01-27T04:38:28.757Z,8.30
2024-01-27T04:40:56.376Z,8.30
2024-01-27T04:43:23.618Z,8.20
2024-01-27T04:45:50.885Z,8.20
2024-01-27T04:48:18.194Z,8.20
2024-01-27T04:50:45.508Z,8.30
2024-01-27T04:53:12.604Z,8.30
2024-01-27T04:55:39.841Z,8.30
2024-01-27T04:58:08.595Z,8.40
2024-01-27T05:00:35.962Z,8.50
2024-01-27T05:03:06.326Z,8.50
2024-01-27T05:05:36.432Z,8.50
2024-01-27T05:08:05.097Z,8.60
2024-01-27T05:10:32.128Z,8.60
2024-01-27T05:12:59.097Z,8.70
2024-01-27T05:15:26.541Z,8.70
2024-01-27T05:17:54.013Z,8.70
2024-01-27T05:20:21.285Z,8.80
2024-01-27T05:22:48.429Z,8.80
2024-01-27T05:25:16.410Z,8.90
2024-01-27T05:27:43.422Z,8.90
2024-01-27T05:30:11.177Z,8.90
2024-01-27T05:32:39.294Z,8.90
2024-01-27T05:35:07.234Z,8.90
2024-01-27T05:37:34.358Z,8.90
2024-01-27T05:40:01.377Z,8.90
2024-01-27T05:42:28.533Z,9.00
2024-01-27T05:44:55.638Z,9.00
2024-01-27T05:47:22.703Z,9.00
2024-01-27T05:49:49.911Z,9.00
2024-01-27T05:52:24.673Z,9.00
2024-01-27T05:54:53.983Z,9.00
2024-01-27T05:57:21.506Z,9.10
2024-01-27T05:59:48.865Z,9.10
2024-01-27T06:02:18.852Z,9.10
2024-01-27T06:04:46.068Z,9.10
2024-01-27T06:07:13.534Z,9.10
2024-01-27T06:09:40.884Z,9.10
2024-01-27T06:12:08.277Z,9.10
2024-01-27T06:14:35.500Z,9.10
2024-01-27T06:17:06.260Z,9.10
2024-01-27T06:19:33.582Z,9.20
2024-01-27T06:22:03.616Z,9.20
2024-01-27T06:24:32.700Z,9.20
2024-01-27T06:26:59.951Z,9.20
2024-01-27T06:29:28.160Z,9.30
2024-01-27T06:31:55.426Z,9.30
2024-01-27T06:34:22.648Z,9.30
2024-01-27T06:36:50.123Z,9.20
2024-01-27T06:39:17.251Z,9.40
2024-01-27T06:41:44.237Z,9.40
2024-01-27T06:44:11.285Z,9.40
2024-01-27T06:46:38.251Z,9.40
2024-01-27T06:49:05.585Z,9.50
2024-01-27T06:51:32.851Z,9.50
2024-01-27T06:54:00.074Z,9.50
2024-01-27T06:56:27.249Z,9.50
2024-01-27T06:58:54.373Z,9.50
2024-01-27T07:01:22.242Z,9.60
2024-01-27T07:03:49.576Z,9.60
2024-01-27T07:06:17.035Z,9.60
2024-01-27T07:08:44.195Z,9.60
2024-01-27T07:11:11.490Z,9.60
2024-01-27T07:13:38.653Z,9.70
2024-01-27T07:16:06.592Z,9.70
2024-01-27T07:18:36.258Z,9.70
2024-01-27T07:21:06.610Z,9.70
2024-01-27T07:23:36.554Z,9.70
2024-01-27T07:26:04.678Z,9.70
2024-01-27T07:28:32.015Z,9.80
2024-01-27T07:30:59.353Z,9.80
2024-01-27T07:33:26.775Z,9.80
2024-01-27T07:35:54.065Z,9.80
2024-01-27T07:38:21.306Z,9.80
2024-01-27T07:40:48.398Z,9.80
2024-01-27T07:43:15.552Z,9.80
2024-01-27T07:45:42.784Z,9.90
2024-01-27T07:48:10.085Z,9.90
2024-01-27T07:50:37.253Z,9.90
2024-01-27T07:53:04.543Z,9.90
2024-01-27T07:55:31.601Z,10.00
2024-01-27T07:57:59.180Z,10.00
2024-01-27T08:00:26.141Z,10.20
2024-01-27T08:02:53.399Z,10.00
2024-01-27T08:05:22.234Z,10.00
2024-01-27T08:07:50.072Z,10.10
2024-01-27T08:10:17.323Z,10.10
2024-01-27T08:12:44.407Z,10.20
2024-01-27T08:15:11.498Z,10.20
2024-01-27T08:17:38.781Z,10.20
2024-01-27T08:20:06.994Z,10.30
2024-01-27T08:22:34.140Z,10.30
2024-01-27T08:25:01.178Z,10.30
2024-01-27T08:27:28.330Z,10.30
2024-01-27T08:29:58.164Z,10.40
2024-01-27T08:32:25.824Z,10.40
2024-01-27T08:34:53.167Z,10.40
2024-01-27T08:37:21.552Z,10.50
2024-01-27T08:39:48.726Z,10.50
2024-01-27T08:42:16.245Z,10.50
2024-01-27T08:44:43.402Z,10.60
2024-01-27T08:47:10.614Z,10.70
2024-01-27T08:49:37.778Z,10.60
2024-01-27T08:52:05.366Z,10.70
2024-01-27T08:54:32.616Z,10.80
2024-01-27T08:56:59.722Z,10.80
2024-01-27T08:59:26.929Z,10.80
2024-01-27T09:01:53.912Z,10.80
2024-01-27T09:04:21.097Z,10.90
2024-01-27T09:06:48.420Z,10.90
2024-01-27T09:09:15.633Z,10.90
2024-01-27T09:11:43.819Z,11.00
2024-01-27T09:14:11.017Z,11.00
2024-01-27T09:16:38.174Z,11.00
2024-01-27T09:19:05.606Z,11.00
2024-01-27T09:21:34.016Z,11.10
2024-01-27T09:24:03.469Z,11.10
2024-01-27T09:26:30.632Z,11.20
2024-01-27T09:28:58.258Z,11.20
2024-01-27T09:31:26.490Z,11.30
2024-01-27T09:33:55.365Z,11.40
2024-01-27T09:36:23.477Z,11.40
2024-01-27T09:38:50.975Z,11.50
2024-01-27T09:41:18.525Z,11.50
2024-01-27T09:43:47.528Z,11.60
2024-01-27T09:46:18.507Z,11.60
2024-01-27T09:48:46.540Z,11.70
2024-01-27T09:51:14.207Z,11.70
2024-01-27T09:53:41.660Z,11.80
2024-01-27T09:56:10.137Z,11.80
2024-01-27T09:58:37.942Z,11.80
2024-01-27T10:01:06.939Z,11.90
2024-01-27T10:03:36.168Z,11.90
2024-01-27T10:06:05.329Z,12.00
2024-01-27T10:08:32.523Z,12.00
2024-01-27T10:11:00.094Z,12.10
2024-01-27T10:13:27.818Z,12.00
2024-01-27T10:16:09.426Z,12.00
2024-01-27T10:18:36.856Z,12.00
2024-01-27T10:21:19.509Z,12.00
2024-01-27T10:23:46.751Z,12.00
2024-01-27T10:26:13.759Z,12.00
2024-01-27T10:28:41.214Z,12.00
2024-01-27T10:31:14.939Z,12.00
2024-01-27T10:33:54.830Z,12.10
2024-01-27T10:36:22.276Z,12.10
2024-01-27T10:38:49.366Z,12.20
2024-01-27T10:41:27.455Z,12.10
2024-01-27T10:43:55.832Z,12.20
2024-01-27T10:46:23.458Z,12.10
2024-01-27T10:48:54.315Z,12.30
2024-01-27T10:51:32.794Z,12.40
2024-01-27T10:54:04.362Z,12.50
2024-01-27T10:56:38.059Z,12.40
2024-01-27T10:59:09.453Z,12.50
2024-01-27T11:01:39.288Z,12.50
2024-01-27T11:04:08.736Z,12.60
2024-01-27T11:06:37.119Z,12.60
2024-01-27T11:09:05.539Z,12.60
2024-01-27T11:11:34.109Z,12.60
2024-01-27T11:14:01.277Z,12.70
2024-01-27T11:16:29.595Z,12.70
2024-01-27T11:18:57.050Z,12.70
2024-01-27T11:21:24.107Z,12.70
2024-01-27T11:23:51.737Z,12.80
2024-01-27T11:26:24.626Z,12.80
2024-01-27T11:28:52.407Z,12.80
2024-01-27T11:31:20.712Z,12.80
2024-01-27T11:33:54.166Z,12.80
2024-01-27T11:36:26.395Z,12.80
2024-01-27T11:38:55.065Z,12.80
2024-01-27T11:41:29.841Z,12.80
2024-01-27T11:44:01.025Z,12.80
2024-01-27T11:46:28.850Z,12.90
2024-01-27T11:48:56.554Z,12.90
2024-01-27T11:51:24.786Z,12.90
2024-01-27T11:53:52.388Z,12.90
2024-01-27T11:56:19.520Z,12.90
2024-01-27T11:58:51.386Z,12.90
2024-01-27T12:01:19.195Z,12.90
2024-01-27T12:03:47.241Z,13.10
2024-01-27T12:06:15.658Z,12.80
2024-01-27T12:08:48.682Z,12.80
2024-01-27T12:11:20.520Z,12.60
2024-01-27T12:13:50.618Z,12.70
2024-01-27T12:16:18.737Z,12.70
2024-01-27T12:18:57.034Z,12.70
2024-01-27T12:21:25.033Z,12.70
2024-01-27T12:24:01.082Z,12.70
2024-01-27T12:26:30.640Z,12.70
2024-01-27T12:28:58.993Z,12.70
2024-01-27T12:31:27.328Z,12.70
2024-01-27T12:34:00.469Z,12.60
2024-01-27T12:36:28.158Z,12.60
2024-01-27T12:39:01.565Z,12.50
2024-01-27T12:41:30.226Z,12.40
2024-01-27T12:43:57.913Z,12.40
2024-01-27T12:46:25.251Z,12.30
2024-01-27T12:48:52.852Z,12.30
2024-01-27T12:51:20.754Z,12.40
2024-01-27T12:53:48.419Z,12.20
2024-01-27T12:56:16.709Z,12.20
2024-01-27T12:58:44.069Z,12.20
2024-01-27T13:01:11.500Z,12.20
2024-01-27T13:03:40.781Z,12.30
2024-01-27T13:06:12.284Z,12.40
2024-01-27T13:08:39.732Z,12.60
2024-01-27T13:11:06.870Z,12.90
2024-01-27T13:13:33.832Z,13.10
2024-01-27T13:16:01.462Z,13.70
2024-01-27T13:18:28.776Z,14.20
2024-01-27T13:20:55.962Z,14.80
2024-01-27T13:23:23.497Z,15.30
2024-01-27T13:26:02.590Z,15.80
2024-01-27T13:28:38.399Z,16.20
2024-01-27T13:31:06.189Z,16.70
2024-01-27T13:33:35.386Z,17.00
2024-01-27T13:36:03.271Z,17.30
2024-01-27T13:38:30.511Z,17.50
2024-01-27T13:40:57.721Z,17.70
2024-01-27T13:43:24.965Z,17.70
2024-01-27T13:45:52.808Z,17.70
2024-01-27T13:48:20.268Z,17.70
2024-01-27T13:50:47.519Z,17.70
2024-01-27T13:53:15.050Z,17.90
2024-01-27T13:55:43.950Z,18.10
2024-01-27T13:58:11.529Z,18.20
2024-01-27T14:00:38.656Z,18.20
2024-01-27T14:03:05.865Z,18.30
2024-01-27T14:05:33.131Z,18.50
2024-01-27T14:08:00.647Z,18.30
2024-01-27T14:10:28.585Z,18.30
2024-01-27T14:12:55.587Z,18.30
2024-01-27T14:15:22.814Z,18.40
2024-01-27T14:17:50.060Z,18.40
2024-01-27T14:20:17.706Z,18.40
2024-01-27T14:22:45.413Z,18.40
2024-01-27T14:25:12.641Z,18.20
2024-01-27T14:27:40.399Z,18.00
2024-01-27T14:30:08.491Z,17.90
2024-01-27T14:32:35.926Z,17.70
2024-01-27T14:35:07.185Z,17.60
2024-01-27T14:37:34.952Z,17.40
2024-01-27T14:40:02.419Z,17.30
2024-01-27T14:42:31.444Z,17.10
2024-01-27T14:45:00.141Z,17.10
2024-01-27T14:47:27.435Z,16.80
2024-01-27T14:49:54.525Z,16.70
2024-01-27T14:52:23.299Z,16.70
2024-01-27T14:54:50.655Z,16.40
2024-01-27T14:57:17.931Z,16.20
2024-01-27T14:59:45.288Z,16.10
2024-01-27T15:02:12.417Z,16.00
2024-01-27T15:04:39.748Z,15.90
2024-01-27T15:07:07.494Z,15.70
2024-01-27T15:09:34.753Z,15.60
2024-01-27T15:12:02.137Z,15.40
2024-01-27T15:14:29.962Z,15.20
2024-01-27T15:16:58.530Z,15.00
2024-01-27T15:19:26.059Z,14.90
2024-01-27T15:21:53.328Z,14.70
2024-01-27T15:24:20.565Z,14.40
2024-01-27T15:26:47.810Z,14.30
2024-01-27T15:29:14.781Z,14.10
2024-01-27T15:31:41.951Z,13.90
2024-01-27T15:34:09.804Z,13.70
2024-01-27T15:36:37.300Z,13.60
2024-01-27T15:39:04.732Z,13.40
2024-01-27T15:41:32.338Z,13.20
2024-01-27T15:43:59.688Z,13.10
2024-01-27T15:46:26.801Z,12.90
2024-01-27T15:48:54.182Z,12.90
2024-01-27T15:51:21.691Z,12.70
2024-01-27T15:53:48.719Z,12.60
2024-01-27T15:56:15.957Z,12.50
2024-01-27T15:58:43.049Z,12.40
2024-01-27T16:01:10.196Z,12.30
2024-01-27T16:03:38.503Z,12.30
2024-01-27T16:06:06.944Z,12.20
2024-01-27T16:08:34.137Z,12.20
2024-01-27T16:11:01.112Z,12.10
2024-01-27T16:13:28.298Z,12.10
2024-01-27T16:15:55.672Z,12.00
2024-01-27T16:18:23.122Z,12.00
2024-01-27T16:20:51.008Z,11.90
2024-01-27T16:23:18.323Z,11.90
2024-01-27T16:25:45.445Z,11.90
2024-01-27T16:28:12.625Z,11.80
2024-01-27T16:30:41.639Z,11.80
2024-01-27T16:33:08.807Z,11.80
2024-01-27T16:35:35.975Z,11.70
2024-01-27T16:38:03.247Z,11.70
2024-01-27T16:40:30.518Z,11.60
2024-01-27T16:42:58.167Z,11.50
2024-01-27T16:45:25.600Z,11.40
2024-01-27T16:47:52.863Z,11.30
2024-01-27T16:50:20.133Z,11.20
2024-01-27T16:52:47.301Z,11.10
2024-01-27T16:55:14.697Z,11.10
2024-01-27T16:57:41.925Z,10.90
2024-01-27T17:00:12.969Z,10.80
2024-01-27T17:02:40.692Z,10.70
2024-01-27T17:05:08.240Z,10.60
2024-01-27T17:07:35.851Z,10.60
2024-01-27T17:10:07.228Z,10.40
2024-01-27T17:12:34.931Z,10.40
2024-01-27T17:15:02.321Z,10.30
2024-01-27T17:17:30.182Z,10.20
2024-01-27T17:19:57.392Z,10.20
2024-01-27T17:22:24.442Z,10.10
2024-01-27T17:24:51.744Z,10.10
2024-01-27T17:27:19.697Z,10.00
2024-01-27T17:29:47.673Z,9.90
2024-01-27T17:32:14.868Z,9.90
2024-01-27T17:34:44.190Z,9.90
2024-01-27T17:37:12.205Z,9.80
2024-01-27T17:39:39.530Z,9.80
2024-01-27T17:42:08.748Z,9.70
2024-01-27T17:44:37.535Z,9.60
2024-01-27T17:47:05.073Z,9.60
2024-01-27T17:49:32.372Z,9.60
2024-01-27T17:51:59.710Z,9.60
2024-01-27T17:54:28.197Z,9.50
2024-01-27T17:56:56.478Z,9.50
2024-01-27T17:59:23.826Z,9.40
2024-01-27T18:01:50.845Z,9.40
2024-01-27T18:04:18.031Z,9.40
2024-01-27T18:06:45.206Z,9.40
2024-01-27T18:09:12.448Z,9.40
2024-01-27T18:11:39.951Z,9.40
2024-01-27T18:14:07.293Z,9.40
2024-01-27T18:16:34.321Z,9.40
2024-01-27T18:19:01.523Z,9.40
2024-01-27T18:21:28.597Z,9.40
2024-01-27T18:23:55.858Z,9.40
2024-01-27T18:26:23.375Z,9.40
2024-01-27T18:28:51.620Z,9.30
2024-01-27T18:31:19.904Z,9.30
2024-01-27T18:33:50.498Z,9.30
2024-01-27T18:36:18.558Z,9.20
2024-01-27T18:38:48.910Z,9.20
2024-01-27T18:41:16.170Z,9.20
2024-01-27T18:43:43.281Z,9.10
2024-01-27T18:46:10.424Z,9.20
2024-01-27T18:48:38.549Z,9.10
2024-01-27T18:51:06.650Z,9.10
2024-01-27T18:53:35.368Z,9.10
2024-01-27T18:56:06.800Z,9.00
2024-01-27T18:58:34.504Z,9.00
2024-01-27T19:01:20.607Z,9.00
2024-01-27T19:03:48.094Z,8.90
2024-01-27T19:06:15.473Z,8.90
2024-01-27T19:08:43.070Z,8.90
2024-01-27T19:11:10.116Z,8.80
2024-01-27T19:13:37.384Z,8.80
2024-01-27T19:16:05.137Z,8.80
2024-01-27T19:18:34.191Z,8.80
2024-01-27T19:21:01.500Z,8.80
2024-01-27T19:23:29.055Z,8.80
2024-01-27T19:25:56.438Z,8.70
2024-01-27T19:28:24.120Z,8.70
2024-01-27T19:30:51.190Z,8.70
2024-01-27T19:33:18.421Z,8.60
2024-01-27T19:35:45.638Z,8.60
2024-01-27T19:38:12.822Z,8.60
2024-01-27T19:40:40.154Z,8.50
2024-01-27T19:43:07.357Z,8.60
2024-01-27T19:45:34.655Z,8.50
2024-01-27T19:48:02.058Z,8.50
2024-01-27T19:50:29.466Z,8.50
2024-01-27T19:52:56.848Z,8.50
2024-01-27T19:55:24.069Z,8.50
2024-01-27T19:57:51.638Z,8.50
2024-01-27T20:00:19.900Z,8.40
2024-01-27T20:02:47.371Z,8.40
2024-01-27T20:05:14.644Z,8.40
2024-01-27T20:07:41.950Z,8.40
2024-01-27T20:10:09.542Z,8.50
2024-01-27T20:12:39.190Z,8.40
2024-01-27T20:15:07.809Z,8.40
2024-01-27T20:17:35.592Z,8.40
2024-01-27T20:20:05.651Z,8.30
2024-01-27T20:22:33.120Z,8.40
2024-01-27T20:25:00.639Z,8.40
2024-01-27T20:27:28.029Z,8.40
2024-01-27T20:29:55.192Z,8.40
2024-01-27T20:32:22.449Z,8.40
2024-01-27T20:34:50.329Z,8.40
2024-01-27T20:37:18.061Z,8.40
2024-01-27T20:39:46.478Z,8.40
2024-01-27T20:42:16.012Z,8.40
2024-01-27T20:44:43.197Z,8.40
2024-01-27T20:47:10.219Z,8.40
2024-01-27T20:49:37.627Z,8.40
2024-01-27T20:52:05.526Z,8.30
2024-01-27T20:54:35.004Z,8.30
2024-01-27T20:57:02.904Z,8.30
2024-01-27T20:59:30.214Z,8.30
2024-01-27T21:02:03.084Z,8.30
2024-01-27T21:04:30.205Z,8.30
2024-01-27T21:06:57.633Z,8.40
2024-01-27T21:09:25.206Z,8.20
2024-01-27T21:11:52.774Z,8.30
2024-01-27T21:14:19.775Z,8.30
2024-01-27T21:16:48.067Z,8.20
2024-01-27T21:19:15.198Z,8.20
2024-01-27T21:21:42.525Z,8.20
2024-01-27T21:26:42.314Z,8.20
2024-01-27T21:29:10.829Z,8.20
2024-01-27T21:31:38.131Z,8.10
2024-01-27T21:34:05.298Z,8.10
2024-01-27T21:36:32.541Z,8.10
2024-01-27T21:39:00.252Z,8.10
2024-01-27T21:41:27.652Z,8.10
2024-01-27T21:43:57.104Z,8.10
2024-01-27T21:46:25.330Z,8.10
2024-01-27T21:48:52.816Z,8.10
2024-01-27T21:51:20.197Z,8.30
2024-01-27T21:53:47.374Z,8.10
2024-01-27T21:56:14.796Z,8.00
2024-01-27T21:58:42.706Z,8.00
2024-01-27T22:01:10.041Z,8.00
2024-01-27T22:03:40.657Z,8.00
2024-01-27T22:06:09.188Z,8.00
2024-01-27T22:08:37.821Z,7.90
2024-01-27T22:11:06.460Z,7.90
2024-01-27T22:13:33.692Z,7.90
2024-01-27T22:16:02.122Z,7.90
2024-01-27T22:18:31.732Z,7.90
2024-01-27T22:20:59.126Z,7.90
2024-01-27T22:23:26.971Z,7.90
2024-01-27T22:25:54.206Z,7.90
2024-01-27T22:28:21.374Z,7.80
2024-01-27T22:30:48.691Z,7.80
2024-01-27T22:33:17.761Z,7.80
2024-01-27T22:35:45.254Z,7.80
2024-01-27T22:38:12.376Z,7.80
2024-01-27T22:40:39.577Z,7.80
2024-01-27T22:43:07.008Z,7.80
2024-01-27T22:45:34.384Z,7.80
2024-01-27T22:48:04.295Z,7.80
2024-01-27T22:50:31.564Z,7.70
2024-01-27T22:52:58.796Z,7.70
2024-01-27T22:55:25.995Z,7.70
2024-01-27T22:57:53.188Z,7.70
2024-01-27T23:00:34.803Z,7.70
2024-01-27T23:03:07.078Z,7.70
2024-01-27T23:05:35.419Z,7.60
2024-01-27T23:08:03.027Z,7.60
2024-01-27T23:10:34.296Z,7.60
2024-01-27T23:13:02.654Z,7.60
2024-01-27T23:15:30.263Z,7.60
2024-01-27T23:17:57.507Z,7.50
2024-01-27T23:20:25.257Z,7.50
2024-01-27T23:22:53.512Z,7.50
2024-01-27T23:25:21.449Z,7.50
2024-01-27T23:27:48.594Z,7.50
2024-01-27T23:30:15.971Z,7.40
2024-01-27T23:32:43.965Z,7.40
2024-01-27T23:35:11.848Z,7.40
2024-01-27T23:37:39.081Z,7.40
2024-01-27T23:40:08.009Z,7.40
2024-01-27T23:42:37.231Z,7.30
2024-01-27T23:45:05.040Z,7.30
2024-01-27T23:47:32.186Z,7.30
2024-01-27T23:50:00.686Z,7.30
2024-01-27T23:52:28.679Z,7.30
2024-01-27T23:54:55.704Z,7.30
2024-01-27T23:57:22.753Z,7.20
2024-01-27T23:59:50.009Z,7.30
